createdAt,value
2018-05-27T00:00:14.030Z,101939.29
2018-05-27T00:02:41.721Z,101939.02
2018-05-27T00:05:09.406Z,101936.47
2018-05-27T00:07:37.072Z,101927.48
2018-05-27T00:10:04.730Z,101935.16
2018-05-27T00:12:32.422Z,101940.66
2018-05-27T00:15:00.091Z,101939.20
2018-05-27T00:17:27.748Z,101940.02
2018-05-27T00:19:55.420Z,101948.81
2018-05-27T00:22:23.098Z,101952.15
2018-05-27T00:24:50.746Z,101950.09
2018-05-27T00:27:18.384Z,101948.50
2018-05-27T00:29:46.024Z,101949.67
2018-05-27T00:32:13.669Z,101951.38
2018-05-27T00:34:41.314Z,101949.77
2018-05-27T00:37:08.939Z,101950.01
2018-05-27T00:39:36.621Z,101955.20
2018-05-27T00:42:04.263Z,101952.64
2018-05-27T00:44:31.905Z,101955.95
2018-05-27T00:46:59.557Z,101947.20
2018-05-27T00:49:27.206Z,101952.57
2018-05-27T00:51:54.864Z,101948.30
2018-05-27T00:54:22.498Z,101954.31
2018-05-27T00:56:50.185Z,101948.20
2018-05-27T00:59:17.835Z,101948.61
2018-05-27T01:01:45.510Z,101951.09
2018-05-27T01:04:13.170Z,101952.50
2018-05-27T01:06:40.830Z,101958.31
2018-05-27T01:09:08.477Z,101953.11
2018-05-27T01:11:36.155Z,101947.22
2018-05-27T01:14:03.794Z,101949.00
2018-05-27T01:16:31.440Z,101944.66
2018-05-27T01:18:59.100Z,101940.48
2018-05-27T01:21:26.778Z,101935.97
2018-05-27T01:23:54.456Z,101930.70
2018-05-27T01:26:22.112Z,101927.38
2018-05-27T01:28:49.809Z,101939.88
2018-05-27T01:31:17.479Z,101935.53
2018-05-27T01:33:45.127Z,101936.51
2018-05-27T01:36:12.812Z,101934.06
2018-05-27T01:38:40.456Z,101939.57
2018-05-27T01:41:08.080Z,101933.77
2018-05-27T01:43:35.727Z,101935.02
2018-05-27T01:46:03.400Z,101936.45
2018-05-27T01:48:31.065Z,101928.86
2018-05-27T01:50:58.824Z,101931.33
2018-05-27T01:53:26.466Z,101928.73
2018-05-27T01:55:54.158Z,101926.73
2018-05-27T01:58:21.822Z,101924.59
2018-05-27T02:00:49.480Z,101916.42
2018-05-27T02:03:17.121Z,101913.59
2018-05-27T02:05:44.789Z,101906.91
2018-05-27T02:08:12.461Z,101901.98
2018-05-27T02:10:40.117Z,101910.66
2018-05-27T02:13:07.768Z,101901.83
2018-05-27T02:15:35.433Z,101900.74
2018-05-27T02:18:03.105Z,101902.79
2018-05-27T02:20:30.763Z,101892.59
2018-05-27T02:22:58.421Z,101891.87
2018-05-27T02:25:26.143Z,101897.92
2018-05-27T02:27:53.788Z,101899.08
2018-05-27T02:30:21.457Z,101890.26
2018-05-27T02:32:49.103Z,101883.12
2018-05-27T02:35:16.849Z,101893.94
2018-05-27T02:37:44.494Z,101882.78
2018-05-27T02:40:12.151Z,101892.39
2018-05-27T02:42:39.818Z,101889.91
2018-05-27T02:45:07.466Z,101888.09
2018-05-27T02:47:35.116Z,101888.70
2018-05-27T02:50:02.771Z,101888.79
2018-05-27T02:52:30.471Z,101877.09
2018-05-27T02:54:58.118Z,101888.40
2018-05-27T02:57:25.784Z,101886.89
2018-05-27T02:59:53.433Z,101880.84
2018-05-27T03:02:21.086Z,101892.77
2018-05-27T03:04:48.738Z,101891.41
2018-05-27T03:07:16.370Z,101891.03
2018-05-27T03:09:44.103Z,101891.66
2018-05-27T03:12:11.931Z,101886.85
2018-05-27T03:14:40.091Z,101884.72
2018-05-27T03:17:07.743Z,101884.52
2018-05-27T03:19:35.420Z,101882.39
2018-05-27T03:22:03.083Z,101882.02
2018-05-27T03:24:30.759Z,101886.42
2018-05-27T03:26:58.427Z,101882.50
2018-05-27T03:29:26.096Z,101881.17
2018-05-27T03:31:53.733Z,101878.66
2018-05-27T03:34:21.378Z,101882.61
2018-05-27T03:36:49.019Z,101887.19
2018-05-27T03:39:16.726Z,101883.92
2018-05-27T03:41:44.405Z,101892.03
2018-05-27T03:44:12.065Z,101885.20
2018-05-27T03:46:39.704Z,101887.98
2018-05-27T03:49:07.346Z,101886.78
2018-05-27T03:51:35.018Z,101883.05
2018-05-27T03:54:02.731Z,101886.03
2018-05-27T03:56:30.373Z,101891.12
2018-05-27T03:58:58.914Z,101896.92
2018-05-27T04:01:26.576Z,101893.22
2018-05-27T04:07:06.809Z,101891.72
2018-05-27T04:09:34.454Z,101895.27
2018-05-27T04:12:02.118Z,101891.48
2018-05-27T04:14:29.777Z,101889.05
2018-05-27T04:16:57.421Z,101883.45
2018-05-27T04:19:25.067Z,101876.23
2018-05-27T04:21:57.850Z,101879.47
2018-05-27T04:24:25.538Z,101878.46
2018-05-27T04:26:53.187Z,101886.59
2018-05-27T04:29:20.836Z,101886.64
2018-05-27T04:31:48.644Z,101888.47
2018-05-27T04:34:29.491Z,101888.55
2018-05-27T04:37:09.902Z,101890.86
2018-05-27T04:39:56.581Z,101895.44
2018-05-27T04:42:35.961Z,101897.63
2018-05-27T04:45:19.670Z,101906.27
2018-05-27T04:48:03.840Z,101903.65
2018-05-27T04:50:45.968Z,101910.14
2018-05-27T04:53:30.042Z,101909.84
2018-05-27T04:56:04.127Z,101916.28
2018-05-27T04:58:31.766Z,101916.28
2018-05-27T05:01:18.376Z,101907.55
2018-05-27T05:04:00.959Z,101908.88
2018-05-27T05:06:45.988Z,101909.25
2018-05-27T05:09:19.348Z,101911.07
2018-05-27T05:12:12.237Z,101909.77
2018-05-27T05:14:59.630Z,101906.34
2018-05-27T05:17:27.364Z,101908.98
2018-05-27T05:20:17.489Z,101916.20
2018-05-27T05:23:08.260Z,101914.17
2018-05-27T05:25:51.928Z,101912.80
2018-05-27T05:28:34.417Z,101909.52
2018-05-27T05:31:17.106Z,101910.27
2018-05-27T05:33:54.883Z,101910.42
2018-05-27T05:36:34.841Z,101909.51
2018-05-27T05:39:16.086Z,101913.36
2018-05-27T05:41:52.799Z,101916.46
2018-05-27T05:44:41.271Z,101910.91
2018-05-27T05:47:29.998Z,101915.08
2018-05-27T05:50:16.085Z,101911.10
2018-05-27T05:52:56.285Z,101909.34
2018-05-27T05:55:37.191Z,101904.78
2018-05-27T05:58:16.983Z,101902.62
2018-05-27T06:00:59.511Z,101908.72
2018-05-27T06:03:38.378Z,101913.78
2018-05-27T06:06:06.049Z,101919.06
2018-05-27T06:08:47.596Z,101922.20
2018-05-27T06:11:15.223Z,101923.20
2018-05-27T06:16:45.532Z,101920.05
2018-05-27T06:19:26.590Z,101921.03
2018-05-27T06:22:15.839Z,101915.43
2018-05-27T06:24:56.390Z,101914.02
2018-05-27T06:27:36.955Z,101912.31
2018-05-27T06:30:17.358Z,101915.77
2018-05-27T06:32:56.810Z,101912.92
2018-05-27T06:35:43.635Z,101916.91
2018-05-27T06:38:29.305Z,101921.38
2018-05-27T06:41:14.538Z,101925.52
2018-05-27T06:43:42.218Z,101923.07
2018-05-27T06:46:09.859Z,101928.78
2018-05-27T06:48:37.517Z,101931.11
2018-05-27T06:51:05.156Z,101931.75
2018-05-27T06:53:32.783Z,101933.11
2018-05-27T06:56:00.416Z,101930.25
2018-05-27T06:58:28.081Z,101926.60
2018-05-27T07:00:55.746Z,101917.66
2018-05-27T07:03:23.394Z,101917.89
2018-05-27T07:05:51.040Z,101921.94
2018-05-27T07:08:18.701Z,101914.38
2018-05-27T07:10:46.355Z,101915.20
2018-05-27T07:13:13.986Z,101908.11
2018-05-27T07:15:41.634Z,101903.86
2018-05-27T07:18:09.843Z,101904.80
2018-05-27T07:20:37.523Z,101905.24
2018-05-27T07:23:05.182Z,101909.09
2018-05-27T07:25:32.933Z,101914.43
2018-05-27T07:28:00.596Z,101915.11
2018-05-27T07:30:28.271Z,101912.00
2018-05-27T07:32:55.921Z,101917.58
2018-05-27T07:35:23.566Z,101917.36
2018-05-27T07:37:51.325Z,101924.13
2018-05-27T07:40:18.962Z,101925.00
2018-05-27T07:42:46.618Z,101926.23
2018-05-27T07:45:14.247Z,101931.11
2018-05-27T07:47:41.902Z,101928.05
2018-05-27T07:50:09.544Z,101932.83
2018-05-27T07:52:37.230Z,101925.17
2018-05-27T07:55:04.899Z,101926.20
2018-05-27T07:57:34.543Z,101926.38
2018-05-27T08:00:02.185Z,101926.28
2018-05-27T08:02:29.833Z,101932.55
2018-05-27T08:04:57.479Z,101927.97
2018-05-27T08:07:25.138Z,101926.95
2018-05-27T08:09:52.806Z,101929.30
2018-05-27T08:12:20.463Z,101934.22
2018-05-27T08:14:48.147Z,101939.88
2018-05-27T08:17:15.788Z,101938.52
2018-05-27T08:19:43.511Z,101945.26
2018-05-27T08:22:11.170Z,101946.23
2018-05-27T08:24:38.829Z,101944.95
2018-05-27T08:27:06.471Z,101953.62
2018-05-27T08:29:34.119Z,101953.34
2018-05-27T08:32:01.759Z,101952.77
2018-05-27T08:34:29.509Z,101957.50
2018-05-27T08:36:57.139Z,101955.48
2018-05-27T08:39:24.850Z,101949.94
2018-05-27T08:41:52.887Z,101960.17
2018-05-27T08:44:20.534Z,101948.09
2018-05-27T08:46:48.194Z,101946.49
2018-05-27T08:49:18.869Z,101951.53
2018-05-27T08:51:46.707Z,101943.11
2018-05-27T08:54:14.421Z,101937.68
2018-05-27T08:56:42.344Z,101934.20
2018-05-27T08:59:10.242Z,101933.20
2018-05-27T09:01:38.068Z,101943.31
2018-05-27T09:04:06.185Z,101951.05
2018-05-27T09:06:34.048Z,101958.00
2018-05-27T09:09:01.756Z,101951.09
2018-05-27T09:11:30.043Z,101946.08
2018-05-27T09:13:57.685Z,101939.59
2018-05-27T09:16:25.421Z,101952.78
2018-05-27T09:18:53.082Z,101945.84
2018-05-27T09:21:20.764Z,101942.58
2018-05-27T09:23:48.435Z,101946.34
2018-05-27T09:26:16.710Z,101938.29
2018-05-27T09:28:44.413Z,101941.64
2018-05-27T09:31:12.088Z,101938.84
2018-05-27T09:33:40.198Z,101935.27
2018-05-27T09:36:07.823Z,101928.53
2018-05-27T09:38:37.573Z,101924.70
2018-05-27T09:41:06.297Z,101921.24
2018-05-27T09:43:33.974Z,101916.42
2018-05-27T09:46:01.978Z,101911.37
2018-05-27T09:48:29.643Z,101911.02
2018-05-27T09:50:57.305Z,101908.66
2018-05-27T09:53:24.966Z,101902.44
2018-05-27T09:55:52.667Z,101905.05
2018-05-27T09:58:21.026Z,101901.52
2018-05-27T10:00:48.756Z,101899.22
2018-05-27T10:03:16.385Z,101902.91
2018-05-27T10:05:44.070Z,101899.41
2018-05-27T10:08:14.648Z,101894.97
2018-05-27T10:10:42.373Z,101882.16
2018-05-27T10:13:10.010Z,101881.77
2018-05-27T10:15:38.055Z,101878.98
2018-05-27T10:18:05.681Z,101876.80
2018-05-27T10:20:33.363Z,101872.93
2018-05-27T10:23:01.335Z,101868.73
2018-05-27T10:25:33.191Z,101866.28
2018-05-27T10:28:02.422Z,101859.44
2018-05-27T10:30:30.341Z,101865.30
2018-05-27T10:32:58.046Z,101859.30
2018-05-27T10:35:25.711Z,101848.94
2018-05-27T10:37:53.334Z,101854.63
2018-05-27T10:40:21.071Z,101852.33
2018-05-27T10:42:48.774Z,101851.20
2018-05-27T10:45:16.468Z,101852.26
2018-05-27T10:47:44.191Z,101853.05
2018-05-27T10:50:11.992Z,101856.41
2018-05-27T10:52:39.683Z,101847.59
2018-05-27T10:55:07.327Z,101852.38
2018-05-27T10:57:35.028Z,101853.08
2018-05-27T11:00:02.695Z,101852.06
2018-05-27T11:02:30.337Z,101845.97
2018-05-27T11:04:58.032Z,101850.94
2018-05-27T11:07:25.701Z,101846.44
2018-05-27T11:09:53.354Z,101850.23
2018-05-27T11:12:20.980Z,101848.03
2018-05-27T11:14:48.659Z,101848.81
2018-05-27T11:17:16.332Z,101838.52
2018-05-27T11:19:44.016Z,101840.09
2018-05-27T11:22:11.666Z,101839.41
2018-05-27T11:24:39.310Z,101848.65
2018-05-27T11:27:06.993Z,101840.47
2018-05-27T11:29:34.672Z,101835.78
2018-05-27T11:32:02.341Z,101836.67
2018-05-27T11:34:30.029Z,101834.02
2018-05-27T11:36:57.711Z,101836.45
2018-05-27T11:39:25.465Z,101830.91
2018-05-27T11:41:53.188Z,101833.22
2018-05-27T11:44:20.867Z,101831.03
2018-05-27T11:46:48.505Z,101824.46
2018-05-27T11:49:16.209Z,101819.11
2018-05-27T11:51:43.905Z,101819.47
2018-05-27T11:54:11.645Z,101817.31
2018-05-27T11:56:39.320Z,101810.01
2018-05-27T11:59:06.990Z,101813.34
2018-05-27T12:01:34.663Z,101808.55
2018-05-27T12:04:02.286Z,101816.94
2018-05-27T12:06:29.946Z,101810.63
2018-05-27T12:08:57.637Z,101800.50
2018-05-27T12:11:25.318Z,101797.55
2018-05-27T12:13:54.128Z,101787.44
2018-05-27T12:16:21.877Z,101792.77
2018-05-27T12:18:50.570Z,101783.83
2018-05-27T12:21:18.194Z,101779.20
2018-05-27T12:23:45.875Z,101773.16
2018-05-27T12:26:13.517Z,101775.20
2018-05-27T12:28:41.486Z,101774.57
2018-05-27T12:31:09.166Z,101779.17
2018-05-27T12:33:36.840Z,101776.74
2018-05-27T12:36:04.688Z,101772.87
2018-05-27T12:38:32.724Z,101773.59
2018-05-27T12:41:00.813Z,101761.58
2018-05-27T12:43:28.472Z,101762.50
2018-05-27T12:45:56.143Z,101768.87
2018-05-27T12:48:23.795Z,101768.61
2018-05-27T12:50:51.562Z,101768.03
2018-05-27T12:53:19.250Z,101764.94
2018-05-27T12:55:47.981Z,101768.16
2018-05-27T12:58:15.621Z,101762.34
2018-05-27T13:00:43.386Z,101768.05
2018-05-27T13:03:11.039Z,101769.86
2018-05-27T13:05:38.721Z,101765.36
2018-05-27T13:08:06.374Z,101766.34
2018-05-27T13:10:34.028Z,101762.97
2018-05-27T13:13:01.682Z,101762.81
2018-05-27T13:15:29.332Z,101753.13
2018-05-27T13:18:00.725Z,101737.91
2018-05-27T13:20:28.409Z,101730.03
2018-05-27T13:22:57.310Z,101731.80
2018-05-27T13:25:25.450Z,101726.73
2018-05-27T13:27:53.075Z,101717.98
2018-05-27T13:30:20.731Z,101714.40
2018-05-27T13:32:48.422Z,101715.30
2018-05-27T13:35:16.063Z,101714.92
2018-05-27T13:37:43.720Z,101720.35
2018-05-27T13:40:11.379Z,101703.61
2018-05-27T13:42:39.065Z,101711.58
2018-05-27T13:45:19.549Z,101711.30
2018-05-27T13:47:47.186Z,101716.98
2018-05-27T13:50:14.856Z,101715.83
2018-05-27T13:52:42.518Z,101720.68
2018-05-27T13:55:10.199Z,101720.14
2018-05-27T13:57:37.839Z,101714.17
2018-05-27T14:00:05.479Z,101705.65
2018-05-27T14:02:33.118Z,101698.91
2018-05-27T14:05:00.765Z,101696.16
2018-05-27T14:07:28.409Z,101699.33
2018-05-27T14:09:56.227Z,101696.59
2018-05-27T14:12:23.868Z,101691.45
2018-05-27T14:14:51.508Z,101680.92
2018-05-27T14:17:19.201Z,101682.12
2018-05-27T14:19:46.893Z,101672.35
2018-05-27T14:22:14.576Z,101679.97
2018-05-27T14:24:42.320Z,101683.05
2018-05-27T14:27:09.949Z,101673.50
2018-05-27T14:29:37.704Z,101678.98
2018-05-27T14:32:05.368Z,101681.54
2018-05-27T14:34:33.101Z,101680.28
2018-05-27T14:37:00.801Z,101677.95
2018-05-27T14:39:29.339Z,101681.25
2018-05-27T14:41:57.007Z,101687.33
2018-05-27T14:44:27.633Z,101681.83
2018-05-27T14:46:55.411Z,101680.05
2018-05-27T14:49:23.095Z,101680.64
2018-05-27T14:51:50.782Z,101674.59
2018-05-27T14:54:18.491Z,101683.23
2018-05-27T14:56:46.186Z,101666.39
2018-05-27T14:59:13.882Z,101671.77
2018-05-27T15:01:41.554Z,101671.81
2018-05-27T15:04:09.265Z,101674.77
2018-05-27T15:06:36.926Z,101674.34
2018-05-27T15:09:04.660Z,101670.27
2018-05-27T15:11:32.329Z,101666.97
2018-05-27T15:14:00.086Z,101676.49
2018-05-27T15:16:27.782Z,101669.75
2018-05-27T15:18:55.499Z,101668.21
2018-05-27T15:21:23.392Z,101669.84
2018-05-27T15:23:51.193Z,101672.27
2018-05-27T15:26:18.898Z,101670.11
2018-05-27T15:28:46.580Z,101670.75
2018-05-27T15:31:14.450Z,101661.19
2018-05-27T15:33:42.282Z,101663.83
2018-05-27T15:36:10.111Z,101656.13
2018-05-27T15:38:37.803Z,101657.30
2018-05-27T15:41:05.505Z,101667.09
2018-05-27T15:43:33.217Z,101656.53
2018-05-27T15:46:00.999Z,101661.86
2018-05-27T15:48:29.573Z,101659.59
2018-05-27T15:50:57.728Z,101652.08
2018-05-27T15:53:26.549Z,101661.56
2018-05-27T15:55:54.906Z,101643.91
2018-05-27T15:58:22.984Z,101645.83
2018-05-27T16:00:50.788Z,101644.73
2018-05-27T16:03:18.543Z,101640.59
2018-05-27T16:05:47.085Z,101638.42
2018-05-27T16:08:15.328Z,101640.21
2018-05-27T16:10:50.599Z,101633.36
2018-05-27T16:13:18.688Z,101632.70
2018-05-27T16:15:46.496Z,101625.21
2018-05-27T16:18:14.834Z,101630.09
2018-05-27T16:20:43.113Z,101635.64
2018-05-27T16:23:10.802Z,101628.51
2018-05-27T16:25:38.505Z,101632.38
2018-05-27T16:28:06.198Z,101630.67
2018-05-27T16:30:33.854Z,101632.14
2018-05-27T16:33:01.518Z,101629.55
2018-05-27T16:35:29.194Z,101631.69
2018-05-27T16:37:56.969Z,101621.64
2018-05-27T16:40:28.153Z,101625.50
2018-05-27T16:42:56.649Z,101622.48
2018-05-27T16:45:24.423Z,101624.17
2018-05-27T16:47:52.226Z,101624.32
2018-05-27T16:50:20.601Z,101618.12
2018-05-27T16:52:48.383Z,101614.22
2018-05-27T16:55:16.049Z,101622.24
2018-05-27T16:57:44.046Z,101624.66
2018-05-27T17:00:11.751Z,101616.45
2018-05-27T17:02:39.408Z,101619.05
2018-05-27T17:05:07.088Z,101618.52
2018-05-27T17:07:34.771Z,101612.10
2018-05-27T17:10:04.861Z,101613.58
2018-05-27T17:12:32.515Z,101613.86
2018-05-27T17:15:00.280Z,101612.11
2018-05-27T17:17:27.999Z,101612.67
2018-05-27T17:19:55.686Z,101605.65
2018-05-27T17:22:25.760Z,101614.66
2018-05-27T17:24:53.448Z,101614.86
2018-05-27T17:27:24.562Z,101619.21
2018-05-27T17:29:52.272Z,101617.58
2018-05-27T17:32:19.922Z,101612.98
2018-05-27T17:34:47.633Z,101605.03
2018-05-27T17:37:15.338Z,101607.90
2018-05-27T17:39:42.997Z,101605.42
2018-05-27T17:42:10.673Z,101603.42
2018-05-27T17:44:38.303Z,101601.38
2018-05-27T17:47:05.981Z,101605.80
2018-05-27T17:49:33.658Z,101600.41
2018-05-27T17:52:01.429Z,101602.05
2018-05-27T17:54:29.165Z,101592.52
2018-05-27T17:56:56.870Z,101600.09
2018-05-27T17:59:24.516Z,101599.69
2018-05-27T18:01:52.216Z,101599.70
2018-05-27T18:04:19.877Z,101605.14
2018-05-27T18:06:47.503Z,101613.16
2018-05-27T18:09:15.176Z,101612.80
2018-05-27T18:11:42.882Z,101618.70
2018-05-27T18:14:11.174Z,101616.45
2018-05-27T18:16:38.834Z,101624.72
2018-05-27T18:19:06.504Z,101627.06
2018-05-27T18:21:34.217Z,101626.34
2018-05-27T18:24:01.934Z,101632.00
2018-05-27T18:26:29.585Z,101633.69
2018-05-27T18:28:57.286Z,101631.47
2018-05-27T18:31:24.966Z,101631.22
2018-05-27T18:33:52.653Z,101640.75
2018-05-27T18:36:20.326Z,101638.66
2018-05-27T18:38:48.029Z,101642.23
2018-05-27T18:41:15.689Z,101643.41
2018-05-27T18:43:43.336Z,101648.34
2018-05-27T18:46:11.039Z,101645.05
2018-05-27T18:48:38.719Z,101644.52
2018-05-27T18:51:06.407Z,101645.83
2018-05-27T18:53:34.081Z,101639.58
2018-05-27T18:56:01.775Z,101642.41
2018-05-27T18:58:29.440Z,101643.95
2018-05-27T19:00:57.107Z,101644.86
2018-05-27T19:03:24.765Z,101640.25
2018-05-27T19:05:52.426Z,101638.08
2018-05-27T19:08:20.088Z,101632.50
2018-05-27T19:10:47.733Z,101636.33
2018-05-27T19:13:15.422Z,101634.98
2018-05-27T19:15:43.151Z,101632.23
2018-05-27T19:18:10.836Z,101632.97
2018-05-27T19:20:38.502Z,101638.78
2018-05-27T19:23:06.129Z,101630.26
2018-05-27T19:25:33.769Z,101629.20
2018-05-27T19:28:01.462Z,101629.25
2018-05-27T19:30:29.115Z,101629.30
2018-05-27T19:32:56.757Z,101628.63
2018-05-27T19:35:24.438Z,101638.14
2018-05-27T19:37:52.090Z,101629.95
2018-05-27T19:40:19.725Z,101627.08
2018-05-27T19:42:49.474Z,101626.12
2018-05-27T19:45:17.116Z,101629.13
2018-05-27T19:47:44.761Z,101629.13
2018-05-27T19:50:12.406Z,101632.15
2018-05-27T19:52:40.041Z,101627.92
2018-05-27T19:55:07.728Z,101639.63
2018-05-27T19:57:35.434Z,101638.36
2018-05-27T20:00:03.070Z,101643.74
2018-05-27T20:02:30.883Z,101638.93
2018-05-27T20:04:59.162Z,101639.92
2018-05-27T20:07:26.809Z,101641.69
2018-05-27T20:09:54.524Z,101639.73
2018-05-27T20:12:22.150Z,101633.33
2018-05-27T20:14:49.788Z,101630.59
2018-05-27T20:17:17.463Z,101637.77
2018-05-27T20:19:45.107Z,101650.03
2018-05-27T20:22:12.753Z,101653.56
2018-05-27T20:24:40.750Z,101646.45
2018-05-27T20:27:08.416Z,101650.87
2018-05-27T20:29:36.062Z,101648.98
2018-05-27T20:32:03.736Z,101648.98
2018-05-27T20:34:31.375Z,101648.47
2018-05-27T20:36:59.038Z,101651.20
2018-05-27T20:39:26.695Z,101645.55
2018-05-27T20:41:54.342Z,101650.81
2018-05-27T20:44:21.982Z,101654.48
2018-05-27T20:46:49.659Z,101644.54
2018-05-27T20:49:17.302Z,101650.50
2018-05-27T20:51:44.985Z,101655.52
2018-05-27T20:54:12.639Z,101651.78
2018-05-27T20:56:40.602Z,101655.94
2018-05-27T20:59:08.231Z,101666.94
2018-05-27T21:01:35.871Z,101665.77
2018-05-27T21:04:03.571Z,101665.64
2018-05-27T21:06:31.213Z,101665.62
2018-05-27T21:08:58.855Z,101663.83
2018-05-27T21:11:26.509Z,101665.98
2018-05-27T21:13:54.149Z,101658.78
2018-05-27T21:16:21.777Z,101663.83
2018-05-27T21:18:49.435Z,101662.57
2018-05-27T21:21:17.069Z,101660.83
2018-05-27T21:23:44.701Z,101663.23
2018-05-27T21:26:12.354Z,101662.77
2018-05-27T21:28:39.998Z,101661.36
2018-05-27T21:31:07.640Z,101656.07
2018-05-27T21:33:35.275Z,101650.45
2018-05-27T21:36:02.908Z,101656.86
2018-05-27T21:38:30.547Z,101654.13
2018-05-27T21:40:58.165Z,101649.12
2018-05-27T21:43:25.805Z,101644.17
2018-05-27T21:45:53.439Z,101645.07
2018-05-27T21:48:21.099Z,101645.59
2018-05-27T21:50:48.740Z,101642.81
2018-05-27T21:53:16.383Z,101644.91
2018-05-27T21:55:44.012Z,101637.75
2018-05-27T21:58:11.664Z,101641.28
2018-05-27T22:00:40.838Z,101639.41
2018-05-27T22:03:08.476Z,101639.67
2018-05-27T22:05:36.116Z,101638.49
2018-05-27T22:08:03.764Z,101639.23
2018-05-27T22:10:31.395Z,101647.23
2018-05-27T22:12:59.037Z,101643.48
2018-05-27T22:15:26.661Z,101644.61
2018-05-27T22:17:54.333Z,101640.80
2018-05-27T22:20:21.976Z,101644.14
2018-05-27T22:22:49.613Z,101645.91
2018-05-27T22:25:17.266Z,101639.59
2018-05-27T22:27:44.904Z,101636.58
2018-05-27T22:30:12.572Z,101641.05
2018-05-27T22:32:40.210Z,101647.27
2018-05-27T22:35:07.843Z,101647.83
2018-05-27T22:37:35.477Z,101657.09
2018-05-27T22:40:03.113Z,101654.84
2018-05-27T22:42:30.729Z,101657.66
2018-05-27T22:44:58.400Z,101646.59
2018-05-27T22:47:26.043Z,101647.50
2018-05-27T22:49:53.671Z,101644.72
2018-05-27T22:52:21.311Z,101640.20
2018-05-27T22:54:48.940Z,101630.19
2018-05-27T22:57:16.572Z,101639.44
2018-05-27T22:59:44.223Z,101636.57
2018-05-27T23:02:11.882Z,101647.50
2018-05-27T23:04:39.517Z,101643.49
2018-05-27T23:07:07.164Z,101643.12
2018-05-27T23:09:34.810Z,101639.78
2018-05-27T23:12:02.461Z,101646.63
2018-05-27T23:14:30.090Z,101645.69
2018-05-27T23:16:57.755Z,101644.61
2018-05-27T23:19:25.408Z,101643.95
2018-05-27T23:21:53.055Z,101643.95
2018-05-27T23:24:20.709Z,101633.22
2018-05-27T23:26:48.347Z,101631.09
2018-05-27T23:29:16.013Z,101626.30
2018-05-27T23:31:43.654Z,101622.97
2018-05-27T23:34:11.308Z,101623.06
2018-05-27T23:36:38.988Z,101633.19
2018-05-27T23:39:06.635Z,101627.31
2018-05-27T23:41:34.285Z,101626.59
2018-05-27T23:44:01.935Z,101632.11
2018-05-27T23:46:29.582Z,101627.06
2018-05-27T23:48:57.230Z,101629.00
2018-05-27T23:51:24.872Z,101632.67
2018-05-27T23:53:52.511Z,101625.92
2018-05-27T23:56:20.173Z,101623.71
2018-05-27T23:58:47.838Z,101623.41
